Time;durP1;ratioP1;P1;durP2;ratioP2;P2;SDS_P1;SDS_P2;PMS_P1;PMS_P2;Temp;Humidity;BMP_temperature;BMP_pressure;BME280_temperature;BME280_humidity;BME280_pressure;Samples;Min_cycle;Max_cycle;Signal;HPM_P1;HPM_P2
2021/05/02 04:13:23;;;;;;;1.00;0.90;;;2.20;76.20;;;;;;5055404;28;20052;-68
2021/05/02 04:15:48;;;;;;;1.95;0.70;;;2.60;75.50;;;;;;5056187;28;20036;-67
2021/05/02 04:18:14;;;;;;;0.60;0.60;;;3.10;73.60;;;;;;5055768;28;20048;-68
2021/05/02 04:20:40;;;;;;;2.65;0.63;;;3.60;71.70;;;;;;5055880;28;20029;-68
2021/05/02 04:23:05;;;;;;;0.50;0.50;;;4.20;69.50;;;;;;5055997;28;20495;-68
2021/05/02 04:25:31;;;;;;;2.08;0.90;;;4.50;67.90;;;;;;5055467;28;20094;-67
2021/05/02 04:27:57;;;;;;;0.68;0.68;;;4.90;66.50;;;;;;5055546;28;20112;-67
2021/05/02 04:30:22;;;;;;;1.20;0.60;;;5.30;65.40;;;;;;5055500;28;20427;-68
2021/05/02 04:32:48;;;;;;;2.25;0.70;;;5.60;64.50;;;;;;5055902;28;20049;-68
2021/05/02 04:35:14;;;;;;;0.50;0.50;;;5.90;63.50;;;;;;5055535;28;20025;-67
2021/05/02 04:37:40;;;;;;;4.82;0.70;;;6.10;62.60;;;;;;5055179;28;20029;-65
2021/05/02 04:40:06;;;;;;;0.60;0.60;;;6.50;79.20;;;;;;5055412;28;20035;-68
2021/05/02 04:42:32;;;;;;;0.77;0.50;;;8.00;72.20;;;;;;5055390;28;20036;-67
2021/05/02 04:44:58;;;;;;;0.65;0.65;;;7.40;60.10;;;;;;5055068;28;20025;-67
2021/05/02 04:47:23;;;;;;;2.33;0.60;;;6.50;60.50;;;;;;5054970;28;20091;-67
2021/05/02 04:49:50;;;;;;;2.13;0.52;;;5.90;62.00;;;;;;5054673;28;20017;-66
2021/05/02 04:52:16;;;;;;;0.70;0.60;;;5.60;63.30;;;;;;5054604;28;20489;-68
2021/05/02 04:54:41;;;;;;;0.80;0.60;;;5.60;64.10;;;;;;5054800;28;20017;-67
2021/05/02 04:57:07;;;;;;;1.40;0.52;;;5.70;64.00;;;;;;5056807;28;20036;-69
2021/05/02 04:59:33;;;;;;;1.38;0.60;;;5.80;63.90;;;;;;5054853;28;20100;-69
2021/05/02 05:01:59;;;;;;;1.70;0.65;;;5.80;63.60;;;;;;5054650;28;20049;-69
2021/05/02 05:04:25;;;;;;;1.10;0.50;;;5.90;63.30;;;;;;5054458;28;20053;-69
2021/05/02 05:06:50;;;;;;;2.85;0.60;;;6.30;63.20;;;;;;5054439;28;20021;-69
2021/05/02 05:09:16;;;;;;;2.53;0.60;;;6.70;62.30;;;;;;5054644;28;20029;-69
2021/05/02 05:11:42;;;;;;;0.95;0.50;;;7.10;60.90;;;;;;5055630;28;20484;-69
2021/05/02 05:14:08;;;;;;;0.90;0.60;;;7.20;60.00;;;;;;5063922;28;20078;-68
2021/05/02 05:16:33;;;;;;;0.28;0.28;;;7.30;59.80;;;;;;5063405;28;20021;-68
2021/05/02 05:18:59;;;;;;;0.50;0.50;;;7.10;59.60;;;;;;5057802;28;20481;-68
2021/05/02 05:21:25;;;;;;;1.00;0.35;;;6.90;59.80;;;;;;5056445;28;20024;-68
2021/05/02 05:23:50;;;;;;;0.88;0.40;;;6.60;60.30;;;;;;5054035;28;20476;-68
2021/05/02 05:26:16;;;;;;;1.15;0.57;;;6.50;60.90;;;;;;5054669;28;20032;-69
2021/05/02 05:28:42;;;;;;;0.50;0.50;;;6.60;61.60;;;;;;5054468;28;20067;-69
2021/05/02 05:31:07;;;;;;;0.52;0.50;;;6.80;61.60;;;;;;5054540;28;20037;-68
2021/05/02 05:33:33;;;;;;;1.13;0.43;;;7.10;61.50;;;;;;5054280;28;20028;-68
2021/05/02 05:35:59;;;;;;;1.05;0.52;;;7.30;60.30;;;;;;5054781;28;20591;-68
2021/05/02 05:38:25;;;;;;;3.63;0.52;;;7.30;60.10;;;;;;5054632;28;20021;-68
2021/05/02 05:40:51;;;;;;;0.50;0.50;;;7.20;59.80;;;;;;5054143;28;20094;-68
2021/05/02 05:43:17;;;;;;;0.50;0.40;;;7.20;59.70;;;;;;5054280;28;20560;-69
2021/05/02 05:45:44;;;;;;;1.52;0.47;;;7.10;60.00;;;;;;5053946;28;20115;-68
2021/05/02 05:48:09;;;;;;;0.93;0.60;;;7.30;60.10;;;;;;5054487;28;20078;-68
2021/05/02 05:50:35;;;;;;;2.83;0.45;;;7.70;59.30;;;;;;5052579;28;20459;-68
2021/05/02 05:53:01;;;;;;;2.85;0.70;;;8.20;59.00;;;;;;5054227;28;20037;-68
2021/05/02 05:55:27;;;;;;;5.50;0.50;;;8.60;57.90;;;;;;5054067;28;20075;-68
2021/05/02 05:57:53;;;;;;;1.00;0.40;;;8.90;56.70;;;;;;5053959;28;20029;-67
2021/05/02 06:00:21;;;;;;;0.63;0.47;;;9.00;56.20;;;;;;5053977;28;20032;-67
2021/05/02 06:02:47;;;;;;;0.90;0.50;;;9.00;55.90;;;;;;5053971;28;20029;-67
2021/05/02 06:05:14;;;;;;;0.50;0.40;;;9.10;55.80;;;;;;5053804;28;20500;-67
2021/05/02 06:07:40;;;;;;;2.75;0.50;;;9.20;55.90;;;;;;5053687;28;20065;-66
2021/05/02 06:10:06;;;;;;;0.75;0.45;;;9.50;55.50;;;;;;5053731;28;20048;-68
2021/05/02 06:12:32;;;;;;;1.70;0.50;;;9.60;55.00;;;;;;5053403;28;20052;-69
2021/05/02 06:14:58;;;;;;;1.60;0.60;;;9.80;55.80;;;;;;5052370;28;20021;-64
2021/05/02 06:17:24;;;;;;;0.80;0.52;;;10.20;57.10;;;;;;5053589;28;20389;-64
2021/05/02 06:19:49;;;;;;;1.65;0.40;;;11.10;64.00;;;;;;5052227;28;20039;-64
2021/05/02 06:22:15;;;;;;;1.25;0.50;;;12.00;60.40;;;;;;5052533;28;20112;-67
2021/05/02 06:24:41;;;;;;;1.00;0.40;;;12.10;56.40;;;;;;5053063;28;20032;-66
2021/05/02 06:27:07;;;;;;;0.55;0.45;;;11.70;53.10;;;;;;5053044;28;20072;-66
2021/05/02 06:29:33;;;;;;;0.40;0.40;;;11.30;52.50;;;;;;5052964;28;20060;-68
2021/05/02 06:31:59;;;;;;;1.05;0.65;;;11.30;53.10;;;;;;5052961;28;20041;-65
2021/05/02 06:34:25;;;;;;;1.00;0.50;;;11.30;52.60;;;;;;5052963;28;20652;-66
2021/05/02 06:36:57;;;;;;;0.88;0.50;;;11.00;52.30;;;;;;5052681;28;20032;-66
2021/05/02 06:39:23;;;;;;;1.23;0.60;;;10.60;52.50;;;;;;5052736;28;20472;-67
2021/05/02 06:41:49;;;;;;;3.17;1.38;;;10.20;52.60;;;;;;5052819;28;20112;-68
2021/05/02 06:44:14;;;;;;;0.60;0.30;;;10.10;53.50;;;;;;5052095;28;20139;-67
2021/05/02 06:46:40;;;;;;;2.40;0.50;;;9.90;53.30;;;;;;5052430;28;20021;-66
2021/05/02 06:49:08;;;;;;;1.17;0.40;;;9.90;53.60;;;;;;5052642;28;20067;-67
2021/05/02 06:51:34;;;;;;;0.70;0.47;;;9.80;53.50;;;;;;5052506;28;20396;-66
2021/05/02 06:54:00;;;;;;;1.10;0.50;;;9.70;53.60;;;;;;5052603;28;20102;-68
2021/05/02 06:56:27;;;;;;;2.15;0.45;;;9.70;53.40;;;;;;5052573;28;20025;-68
2021/05/02 06:58:54;;;;;;;1.55;0.52;;;9.70;53.20;;;;;;5052416;28;20485;-68
2021/05/02 07:01:20;;;;;;;2.25;0.52;;;9.60;53.00;;;;;;5052535;28;20036;-67
2021/05/02 07:03:46;;;;;;;0.60;0.50;;;9.60;53.10;;;;;;5052801;28;20504;-68
2021/05/02 07:06:12;;;;;;;0.90;0.45;;;9.70;53.30;;;;;;5052183;28;20104;-68
2021/05/02 07:08:37;;;;;;;3.35;0.40;;;9.70;52.80;;;;;;5052536;28;20017;-68
2021/05/02 07:11:04;;;;;;;1.92;0.40;;;9.70;52.70;;;;;;5052421;28;20031;-64
2021/05/02 07:13:30;;;;;;;0.77;0.47;;;9.60;53.70;;;;;;5052079;28;20056;-64
2021/05/02 07:15:58;;;;;;;2.15;0.45;;;9.80;57.90;;;;;;5051954;28;20472;-63
2021/05/02 07:18:27;;;;;;;0.63;0.40;;;10.50;63.10;;;;;;5052038;28;20037;-62
2021/05/02 07:20:53;;;;;;;1.85;0.60;;;11.20;61.90;;;;;;5051455;28;20037;-62
2021/05/02 07:23:19;;;;;;;3.63;0.50;;;11.60;60.00;;;;;;5051842;28;20111;-63
2021/05/02 07:25:44;;;;;;;1.35;0.63;;;12.10;61.40;;;;;;5048702;28;20385;-63
2021/05/02 07:28:10;;;;;;;1.27;0.60;;;12.40;59.90;;;;;;5051452;28;20093;-65
2021/05/02 07:30:36;;;;;;;1.58;0.32;;;12.70;57.80;;;;;;5051716;28;20064;-65
2021/05/02 07:33:01;;;;;;;2.35;0.68;;;12.50;53.60;;;;;;5051997;28;20033;-65
2021/05/02 07:35:28;;;;;;;1.17;0.55;;;12.10;51.30;;;;;;5051693;28;20393;-65
2021/05/02 07:37:56;;;;;;;1.15;0.50;;;11.80;52.30;;;;;;5051620;28;20036;-65
2021/05/02 07:40:21;;;;;;;0.88;0.50;;;11.60;51.20;;;;;;5051418;28;20052;-65
2021/05/02 07:42:47;;;;;;;0.88;0.30;;;11.30;50.70;;;;;;5050985;28;20488;-66
2021/05/02 07:45:13;;;;;;;3.03;0.60;;;11.40;50.60;;;;;;5051928;28;20074;-68
2021/05/02 07:47:40;;;;;;;2.40;0.40;;;11.30;50.90;;;;;;5051345;28;20384;-67
2021/05/02 07:50:07;;;;;;;5.93;0.70;;;11.40;49.90;;;;;;5051744;28;20029;-67
2021/05/02 07:52:33;;;;;;;2.22;0.70;;;11.20;50.70;;;;;;5050827;28;20091;-67
2021/05/02 07:54:58;;;;;;;48.65;3.30;;;11.10;51.20;;;;;;5051353;28;20025;-67
2021/05/02 07:57:24;;;;;;;1.15;0.43;;;11.20;54.00;;;;;;5051293;28;20032;-67
2021/05/02 07:59:50;;;;;;;1.85;0.40;;;11.30;49.80;;;;;;5051420;28;20100;-67
2021/05/02 08:02:18;;;;;;;0.57;0.40;;;11.20;49.50;;;;;;5051456;28;20112;-67
2021/05/02 08:04:46;;;;;;;0.88;0.50;;;11.10;49.30;;;;;;5051285;28;20121;-67
2021/05/02 08:07:12;;;;;;;0.98;0.40;;;11.10;49.40;;;;;;5051321;28;20025;-67
2021/05/02 08:09:38;;;;;;;3.00;0.55;;;11.00;49.10;;;;;;5051271;28;20040;-67
2021/05/02 08:12:07;;;;;;;1.85;0.60;;;11.00;49.30;;;;;;5051082;28;20080;-67
2021/05/02 08:14:33;;;;;;;1.27;0.60;;;11.00;49.30;;;;;;5050079;28;20494;-67
2021/05/02 08:16:58;;;;;;;9.10;0.63;;;11.00;49.60;;;;;;5051569;28;20025;-67
2021/05/02 08:19:24;;;;;;;1.23;0.32;;;11.00;48.30;;;;;;5051430;28;20060;-67
2021/05/02 08:21:52;;;;;;;0.80;0.40;;;10.80;47.80;;;;;;5051378;28;20025;-67
2021/05/02 08:24:17;;;;;;;1.23;0.50;;;10.60;48.20;;;;;;5051351;28;20021;-67
2021/05/02 08:26:43;;;;;;;0.68;0.40;;;10.50;48.30;;;;;;5051178;28;20059;-67
2021/05/02 08:29:09;;;;;;;3.63;0.40;;;10.50;48.30;;;;;;5051117;28;20025;-67
2021/05/02 08:31:35;;;;;;;0.63;0.30;;;10.50;48.10;;;;;;5051280;28;20147;-67
2021/05/02 08:34:01;;;;;;;1.20;0.50;;;10.60;48.20;;;;;;5051569;28;20040;-67
2021/05/02 08:36:27;;;;;;;0.30;0.30;;;10.80;48.10;;;;;;5050751;28;20025;-67
2021/05/02 08:38:53;;;;;;;0.30;0.30;;;10.90;48.20;;;;;;5050822;28;20048;-67
2021/05/02 08:41:19;;;;;;;1.00;0.32;;;10.90;47.60;;;;;;5051384;28;20108;-67
2021/05/02 08:43:54;;;;;;;0.55;0.40;;;10.80;47.60;;;;;;5050865;28;20025;-67
2021/05/02 08:46:20;;;;;;;2.42;0.38;;;10.70;47.70;;;;;;5050943;28;20036;-67
2021/05/02 08:48:46;;;;;;;1.10;0.50;;;10.60;48.00;;;;;;5049423;28;20025;-68
2021/05/02 08:51:12;;;;;;;1.85;0.43;;;10.50;48.00;;;;;;5050982;28;20037;-67
2021/05/02 08:53:38;;;;;;;1.38;0.40;;;10.30;48.00;;;;;;5052388;28;20056;-67
2021/05/02 08:56:04;;;;;;;5.25;0.40;;;10.30;48.30;;;;;;5054816;28;20114;-67
2021/05/02 08:58:30;;;;;;;0.82;0.50;;;10.30;48.10;;;;;;5054677;28;20540;-67
2021/05/02 09:00:57;;;;;;;39.20;2.55;;;10.00;48.40;;;;;;5054416;28;20104;-65
2021/05/02 09:03:46;;;;;;;1.13;0.30;;;9.90;49.20;;;;;;5054650;28;20385;-68
2021/05/02 09:06:17;;;;;;;3.47;0.50;;;10.20;49.40;;;;;;5054944;28;20021;-69
2021/05/02 09:08:44;;;;;;;0.45;0.45;;;10.10;48.70;;;;;;5054637;28;20387;-69
2021/05/02 09:11:10;;;;;;;0.75;0.60;;;10.10;49.50;;;;;;5054432;28;20029;-69
2021/05/02 09:13:46;;;;;;;1.92;0.40;;;10.00;50.00;;;;;;5054222;28;20084;-69
2021/05/02 09:16:12;;;;;;;0.40;0.40;;;9.90;50.30;;;;;;5054430;28;20112;-69
2021/05/02 09:18:41;;;;;;;0.45;0.40;;;9.90;50.40;;;;;;5053855;28;20124;-69
2021/05/02 09:21:35;;;;;;;0.90;0.55;;;10.00;52.90;;;;;;5054083;28;20496;-68
2021/05/02 09:24:01;;;;;;;0.70;0.47;;;10.00;50.80;;;;;;5051404;28;20037;-68
2021/05/02 09:26:32;;;;;;;1.25;0.95;;;9.90;51.10;;;;;;5053670;28;20079;-68
2021/05/02 09:29:02;;;;;;;3.80;0.38;;;9.90;51.20;;;;;;5053707;28;20025;-68
2021/05/02 09:31:35;;;;;;;0.60;0.40;;;10.00;51.40;;;;;;5050658;28;20034;-68
2021/05/02 09:34:16;;;;;;;0.65;0.30;;;10.10;50.90;;;;;;5053632;28;20071;-68
2021/05/02 09:36:51;;;;;;;0.70;0.45;;;10.10;50.60;;;;;;5053677;28;20024;-68
2021/05/02 09:39:50;;;;;;;1.30;0.30;;;10.10;51.10;;;;;;5053509;28;20102;-68
2021/05/02 09:42:17;;;;;;;1.25;0.40;;;10.20;51.00;;;;;;5053868;28;20025;-68
2021/05/02 09:44:45;;;;;;;0.80;0.57;;;10.20;50.10;;;;;;5050795;28;20162;-68
2021/05/02 09:47:28;;;;;;;2.08;0.47;;;10.30;50.70;;;;;;5068203;28;20056;-68
2021/05/02 09:50:26;;;;;;;0.77;0.40;;;10.10;50.30;;;;;;5073537;28;20012;-68
2021/05/02 09:53:06;;;;;;;0.60;0.32;;;10.00;49.30;;;;;;5073736;28;20033;-68
2021/05/02 09:55:33;;;;;;;3.67;0.60;;;10.00;49.20;;;;;;5073727;28;20025;-68
2021/05/02 09:58:11;;;;;;;0.80;0.40;;;10.00;49.90;;;;;;5068042;28;20036;-69
2021/05/02 10:00:41;;;;;;;0.47;0.32;;;9.80;48.70;;;;;;5051606;28;20021;-69
2021/05/02 10:03:13;;;;;;;1.73;0.40;;;9.70;50.00;;;;;;5050700;28;20025;-68
2021/05/02 10:05:59;;;;;;;1.30;0.47;;;9.60;51.10;;;;;;5052657;28;20023;-69
2021/05/02 10:08:43;;;;;;;0.57;0.40;;;9.40;51.20;;;;;;5052731;28;20013;-69
2021/05/02 10:11:11;;;;;;;0.35;0.32;;;9.40;51.90;;;;;;5050554;28;20021;-68
2021/05/02 10:13:40;;;;;;;1.30;0.40;;;9.20;53.30;;;;;;5053067;28;20128;-67
2021/05/02 10:16:07;;;;;;;0.32;0.30;;;9.00;55.00;;;;;;5049988;28;20027;-67
2021/05/02 10:18:33;;;;;;;2.03;0.47;;;8.80;56.50;;;;;;5053379;28;20071;-67
2021/05/02 10:20:59;;;;;;;0.40;0.40;;;8.70;56.90;;;;;;5052923;28;20457;-68
2021/05/02 10:23:25;;;;;;;0.30;0.30;;;8.60;57.40;;;;;;5053024;28;20111;-68
2021/05/02 10:25:56;;;;;;;1.38;0.40;;;8.50;57.80;;;;;;5052608;28;20117;-68
2021/05/02 10:28:27;;;;;;;0.98;0.40;;;8.40;56.60;;;;;;5052352;28;20021;-67
2021/05/02 10:30:54;;;;;;;;;;;8.50;56.10;;;;;;5052794;28;20041;-68
2021/05/02 10:33:38;;;;;;;0.30;0.30;;;8.60;57.40;;;;;;5052587;28;19905;-69
2021/05/02 10:36:08;;;;;;;0.73;0.40;;;8.70;56.70;;;;;;5052552;28;20083;-68
2021/05/02 10:38:50;;;;;;;0.47;0.30;;;8.90;57.10;;;;;;5053062;28;20032;-68
2021/05/02 10:41:36;;;;;;;0.43;0.40;;;9.00;56.50;;;;;;5052872;28;20036;-68
2021/05/02 10:44:05;;;;;;;0.52;0.30;;;9.00;55.50;;;;;;5052620;28;20040;-68
2021/05/02 10:46:53;;;;;;;0.68;0.38;;;9.10;56.90;;;;;;5052544;28;20021;-68
2021/05/02 10:49:19;;;;;;;0.30;0.30;;;9.20;55.70;;;;;;5052534;28;20030;-68
2021/05/02 10:51:48;;;;;;;1.27;0.47;;;9.20;54.90;;;;;;5052587;28;20078;-68
2021/05/02 10:54:19;;;;;;;0.40;0.30;;;9.30;55.30;;;;;;5052765;28;20036;-68
2021/05/02 10:56:53;;;;;;;0.52;0.40;;;9.40;55.40;;;;;;5052277;28;20029;-68
2021/05/02 10:59:57;;;;;;;1.60;0.60;;;9.50;53.90;;;;;;5052328;28;20049;-68
2021/05/02 11:02:42;;;;;;;1.20;0.60;;;9.60;52.80;;;;;;5051664;28;20492;-69
2021/05/02 11:05:10;;;;;;;0.88;0.65;;;9.70;51.60;;;;;;5052376;28;20036;-70
2021/05/02 11:07:41;;;;;;;0.85;0.45;;;9.70;51.30;;;;;;5052693;28;20020;-68
2021/05/02 11:10:12;;;;;;;3.03;0.40;;;9.70;50.60;;;;;;5052189;28;20029;-69
2021/05/02 11:12:38;;;;;;;2.00;0.60;;;9.60;50.30;;;;;;5052118;28;20045;-69
2021/05/02 11:15:25;;;;;;;3.20;0.60;;;9.50;49.70;;;;;;5052049;28;20028;-68
2021/05/02 11:17:53;;;;;;;1.92;1.10;;;9.60;49.80;;;;;;5051199;28;20051;-68
2021/05/02 11:20:47;;;;;;;4.10;0.70;;;9.60;48.90;;;;;;5051885;28;20013;-69
2021/05/02 11:23:17;;;;;;;0.50;0.50;;;9.70;48.90;;;;;;5052028;28;20032;-69
2021/05/02 11:25:52;;;;;;;0.50;0.40;;;9.80;47.70;;;;;;5051832;28;20033;-69
2021/05/02 11:28:45;;;;;;;0.40;0.40;;;9.90;46.90;;;;;;5052088;28;20025;-69
2021/05/02 11:31:11;;;;;;;2.58;0.50;;;10.00;47.30;;;;;;5052055;28;20025;-69
2021/05/02 11:33:37;;;;;;;0.30;0.30;;;10.10;47.60;;;;;;5051895;28;20120;-68
2021/05/02 11:36:03;;;;;;;1.02;0.40;;;10.10;47.60;;;;;;5050345;28;20144;-68
2021/05/02 11:38:38;;;;;;;3.80;0.30;;;10.00;47.00;;;;;;5051745;28;20029;-68
2021/05/02 11:41:08;;;;;;;1.50;0.40;;;10.00;47.40;;;;;;5031575;28;20029;-68
2021/05/02 11:43:35;;;;;;;1.40;0.47;;;9.90;47.20;;;;;;5032097;28;20098;-68
2021/05/02 11:46:04;;;;;;;0.82;0.60;;;9.80;47.60;;;;;;5031601;28;20110;-68
2021/05/02 11:48:32;;;;;;;3.67;0.70;;;9.70;47.90;;;;;;5031634;28;20028;-68
2021/05/02 11:51:13;;;;;;;1.02;0.50;;;9.70;48.20;;;;;;5031458;28;20033;-69
2021/05/02 11:53:55;;;;;;;1.17;0.40;;;9.70;47.20;;;;;;5031663;28;20112;-71
2021/05/02 11:56:25;;;;;;;7.03;1.58;;;9.80;46.00;;;;;;5031531;28;20029;-68
2021/05/02 11:59:09;;;;;;;16.42;3.00;;;10.70;63.00;;;;;;5031413;28;20026;-69
2021/05/02 12:01:38;;;;;;;17.60;3.95;;;12.30;63.10;;;;;;5031343;28;20061;-67
2021/05/02 12:04:10;;;;;;;2.53;0.80;;;13.10;58.80;;;;;;5031478;28;20504;-71
2021/05/02 12:06:38;;;;;;;1.67;0.40;;;13.60;54.60;;;;;;5031482;28;20029;-71
2021/05/02 12:09:13;;;;;;;3.50;0.40;;;12.90;45.50;;;;;;5031357;28;20385;-71
2021/05/02 12:11:41;;;;;;;2.08;0.40;;;12.10;45.00;;;;;;5031306;28;20037;-70
2021/05/02 12:14:07;;;;;;;0.65;0.30;;;11.60;44.40;;;;;;5031191;28;20060;-71
2021/05/02 12:16:33;;;;;;;1.27;0.40;;;11.10;45.10;;;;;;5031464;28;20033;-71
2021/05/02 12:19:01;;;;;;;0.80;0.35;;;10.90;45.80;;;;;;5031377;28;20036;-71
2021/05/02 12:21:42;;;;;;;0.30;0.22;;;10.70;45.30;;;;;;5030027;28;20033;-71
2021/05/02 12:24:15;;;;;;;0.25;0.25;;;10.50;45.30;;;;;;5031441;28;20049;-71
2021/05/02 12:26:44;;;;;;;2.38;0.50;;;10.40;45.30;;;;;;5031806;28;20041;-71
2021/05/02 12:29:26;;;;;;;7.95;2.25;;;10.20;45.40;;;;;;5033829;28;20060;-68
2021/05/02 12:32:02;;;;;;;0.35;0.30;;;10.40;53.40;;;;;;5035375;28;20064;-71
2021/05/02 12:34:36;;;;;;;1.20;0.40;;;11.90;51.40;;;;;;5035725;28;20053;-70
2021/05/02 12:37:14;;;;;;;1.48;0.40;;;11.50;46.80;;;;;;5034987;28;20025;-69
2021/05/02 12:39:44;;;;;;;3.90;0.50;;;11.00;48.00;;;;;;5052457;28;20380;-68
2021/05/02 12:42:10;;;;;;;;;;;10.70;49.00;;;;;;5054017;28;20048;-73
2021/05/02 12:44:41;;;;;;;0.88;0.30;;;10.30;51.80;;;;;;5050806;28;19911;-74
2021/05/02 12:47:18;;;;;;;2.92;0.45;;;10.10;53.60;;;;;;5054338;28;20025;-75
2021/05/02 12:50:04;;;;;;;0.30;0.30;;;9.80;56.00;;;;;;5054465;28;20384;-74
2021/05/02 12:52:37;;;;;;;2.28;0.40;;;9.60;56.40;;;;;;5057302;28;20036;-74
2021/05/02 12:55:35;;;;;;;1.45;0.73;;;9.50;56.30;;;;;;5065482;28;20020;-74
2021/05/02 12:58:04;;;;;;;2.75;0.30;;;9.40;56.50;;;;;;5048154;28;20024;-74
2021/05/02 13:00:44;;;;;;;2.13;0.40;;;9.40;55.80;;;;;;5062983;28;20025;-74
2021/05/02 13:03:41;;;;;;;0.75;0.30;;;9.40;56.00;;;;;;5063107;28;20052;-73
2021/05/02 13:06:10;;;;;;;2.20;0.38;;;9.30;54.90;;;;;;5064189;28;20070;-73
2021/05/02 13:08:38;;;;;;;0.63;0.30;;;9.10;54.50;;;;;;5061451;28;20112;-73
2021/05/02 13:11:29;;;;;;;0.43;0.40;;;9.10;54.80;;;;;;5062946;28;20040;-73
2021/05/02 13:14:18;;;;;;;2.40;0.57;;;9.10;54.30;;;;;;5060834;28;20519;-73
2021/05/02 13:16:46;;;;;;;0.55;0.30;;;9.10;53.80;;;;;;5063505;28;20016;-73
2021/05/02 13:19:29;;;;;;;0.30;0.30;;;9.10;53.10;;;;;;5064965;28;20503;-73
2021/05/02 13:22:21;;;;;;;0.40;0.40;;;9.10;53.80;;;;;;5057376;28;20028;-73
2021/05/02 13:25:08;;;;;;;0.55;0.30;;;9.10;53.10;;;;;;5063932;28;20025;-74
2021/05/02 13:27:45;;;;;;;1.17;0.32;;;9.20;52.50;;;;;;5059326;28;20503;-73
2021/05/02 13:30:16;;;;;;;1.05;0.47;;;9.30;52.30;;;;;;5065221;28;20035;-73
2021/05/02 13:33:05;;;;;;;2.75;0.30;;;9.40;52.70;;;;;;5063586;28;20686;-73
2021/05/02 13:35:33;;;;;;;1.20;0.30;;;9.50;51.40;;;;;;5065221;28;20021;-73
2021/05/02 13:38:00;;;;;;;0.40;0.40;;;9.60;51.70;;;;;;5062317;28;20067;-74
2021/05/02 13:40:27;;;;;;;0.30;0.30;;;9.60;51.10;;;;;;5064563;28;20024;-74
2021/05/02 13:42:55;;;;;;;2.75;0.50;;;9.60;51.90;;;;;;5058654;28;20349;-73
2021/05/02 13:45:21;;;;;;;0.40;0.40;;;9.50;52.20;;;;;;5063300;28;20475;-74
2021/05/02 13:47:48;;;;;;;4.50;0.40;;;9.50;51.60;;;;;;5062700;28;20104;-74
2021/05/02 13:50:14;;;;;;;2.40;0.40;;;9.50;52.00;;;;;;5065223;28;20492;-73
2021/05/02 13:52:40;;;;;;;2.28;0.38;;;9.60;52.00;;;;;;5063546;28;20036;-75
2021/05/02 13:55:07;;;;;;;1.10;0.30;;;9.60;51.20;;;;;;5067151;28;20041;-75
2021/05/02 13:57:33;;;;;;;1.65;0.30;;;9.60;50.20;;;;;;5060069;28;20489;-76
2021/05/02 13:59:59;;;;;;;0.40;0.40;;;9.70;51.90;;;;;;5063354;28;20111;-76
2021/05/02 14:02:26;;;;;;;0.38;0.30;;;9.70;51.10;;;;;;5061272;28;20024;-76
2021/05/02 14:04:52;;;;;;;2.55;0.50;;;9.80;50.50;;;;;;5064058;28;20024;-75
2021/05/02 14:07:18;;;;;;;0.98;0.20;;;9.70;50.80;;;;;;5060076;28;20025;-74
2021/05/02 14:09:44;;;;;;;0.73;0.40;;;9.70;50.60;;;;;;5062556;28;20031;-75
2021/05/02 14:12:10;;;;;;;1.38;0.40;;;9.70;50.60;;;;;;5055816;28;20053;-74
2021/05/02 14:14:37;;;;;;;0.35;0.35;;;9.70;49.40;;;;;;5055683;28;20021;-73
2021/05/02 14:17:03;;;;;;;0.85;0.40;;;9.70;49.50;;;;;;5060773;28;20108;-74
2021/05/02 14:19:29;;;;;;;2.88;0.50;;;9.60;49.40;;;;;;5060412;28;20099;-73
2021/05/02 14:21:54;;;;;;;1.00;0.43;;;9.60;49.50;;;;;;5059959;28;20498;-73
2021/05/02 14:24:20;;;;;;;4.88;0.50;;;9.60;50.00;;;;;;5059641;28;20079;-73
2021/05/02 14:26:46;;;;;;;1.45;0.45;;;9.60;50.00;;;;;;5060528;28;20386;-73
2021/05/02 14:29:11;;;;;;;0.65;0.32;;;9.60;49.80;;;;;;5052139;28;20052;-71
2021/05/02 14:31:37;;;;;;;1.25;0.30;;;9.60;50.00;;;;;;5062624;28;20044;-74
2021/05/02 14:34:10;;;;;;;0.30;0.30;;;9.70;49.90;;;;;;5057072;28;20025;-74
2021/05/02 14:36:36;;;;;;;1.20;0.50;;;9.60;49.80;;;;;;5055723;28;20020;-74
2021/05/02 14:39:03;;;;;;;0.60;0.55;;;9.60;49.50;;;;;;5055796;28;20041;-74
2021/05/02 14:41:29;;;;;;;0.63;0.52;;;9.60;49.80;;;;;;5058897;28;20025;-75
2021/05/02 14:43:55;;;;;;;1.90;0.60;;;9.60;49.50;;;;;;5062059;28;20546;-75
2021/05/02 14:46:21;;;;;;;1.38;0.60;;;9.50;49.20;;;;;;5061151;28;20025;-74
2021/05/02 14:48:46;;;;;;;2.38;0.50;;;9.50;49.30;;;;;;5061558;28;20049;-74
2021/05/02 14:51:12;;;;;;;0.63;0.47;;;9.60;49.10;;;;;;5064062;28;20025;-75
2021/05/02 14:53:38;;;;;;;2.15;0.50;;;9.60;49.30;;;;;;5057696;28;20025;-75
2021/05/02 14:56:04;;;;;;;9.55;5.10;;;9.60;49.40;;;;;;5051871;28;20037;-74
2021/05/02 14:58:29;;;;;;;27.00;16.20;;;9.50;48.80;;;;;;5052414;28;20099;-74
2021/05/02 15:00:55;;;;;;;2.03;1.63;;;9.50;48.80;;;;;;5054645;28;20029;-74
2021/05/02 15:03:23;;;;;;;1.20;0.80;;;9.50;48.90;;;;;;5055253;28;20040;-74
2021/05/02 15:05:49;;;;;;;0.68;0.32;;;9.40;48.80;;;;;;5058002;28;20398;-76
2021/05/02 15:08:15;;;;;;;0.93;0.40;;;9.20;49.80;;;;;;5061993;28;20025;-74
2021/05/02 15:10:41;;;;;;;2.60;0.63;;;9.10;50.00;;;;;;5053402;28;20022;-74
2021/05/02 15:13:07;;;;;;;4.82;1.40;;;9.20;50.30;;;;;;5067421;28;20041;-72
2021/05/02 15:15:32;;;;;;;0.68;0.52;;;9.20;50.20;;;;;;5051857;28;20025;-70
2021/05/02 15:17:58;;;;;;;1.30;0.50;;;9.20;49.60;;;;;;5065202;28;20070;-72
2021/05/02 15:20:24;;;;;;;0.30;0.30;;;9.20;49.60;;;;;;5059135;28;20028;-71
2021/05/02 15:22:50;;;;;;;5.43;0.93;;;9.30;49.90;;;;;;5057569;28;20085;-72
2021/05/02 15:25:15;;;;;;;1.83;0.60;;;9.30;50.10;;;;;;5082584;28;20025;-72
2021/05/02 15:27:41;;;;;;;0.50;0.40;;;9.30;50.00;;;;;;5056351;28;20104;-72
2021/05/02 15:30:11;;;;;;;1.02;0.45;;;9.30;49.90;;;;;;5060151;28;20021;-72
2021/05/02 15:32:38;;;;;;;2.53;0.63;;;9.30;49.10;;;;;;5055845;28;20559;-71
2021/05/02 15:35:05;;;;;;;2.90;0.70;;;9.30;49.10;;;;;;5054952;28;20333;-72
2021/05/02 15:37:31;;;;;;;1.05;0.40;;;9.40;49.00;;;;;;5053490;28;20027;-72
2021/05/02 15:39:57;;;;;;;0.85;0.47;;;9.50;49.90;;;;;;5051360;28;20029;-71
2021/05/02 15:42:22;;;;;;;0.70;0.70;;;9.50;50.30;;;;;;5060703;28;20021;-72
2021/05/02 15:44:49;;;;;;;0.43;0.43;;;9.50;50.00;;;;;;5063179;28;20032;-72
2021/05/02 15:47:15;;;;;;;0.35;0.32;;;9.60;50.20;;;;;;5060343;28;20025;-72
2021/05/02 15:49:42;;;;;;;2.20;0.60;;;9.60;49.70;;;;;;5063100;28;20020;-73
2021/05/02 15:52:08;;;;;;;1.15;0.55;;;9.70;49.60;;;;;;5060255;28;20099;-72
2021/05/02 15:54:33;;;;;;;3.35;1.20;;;9.70;51.30;;;;;;5062465;28;20028;-68
2021/05/02 15:56:59;;;;;;;4.60;0.90;;;9.70;57.50;;;;;;5060974;28;20036;-68
2021/05/02 15:59:25;;;;;;;2.75;0.63;;;11.00;66.80;;;;;;5060846;28;20157;-73
2021/05/02 16:01:51;;;;;;;12.32;1.95;;;12.50;65.40;;;;;;5062177;28;20024;-73
2021/05/02 16:04:17;;;;;;;0.93;0.40;;;12.50;51.90;;;;;;5056801;28;20056;-73
2021/05/02 16:06:43;;;;;;;0.30;0.30;;;11.70;46.60;;;;;;5058474;28;20365;-73
2021/05/02 16:09:09;;;;;;;2.22;0.40;;;11.20;46.60;;;;;;5062112;28;20400;-73
2021/05/02 16:11:35;;;;;;;9.95;0.90;;;10.80;45.40;;;;;;5057384;28;20056;-72
2021/05/02 16:14:01;;;;;;;0.60;0.40;;;10.60;45.60;;;;;;5061287;28;20020;-73
2021/05/02 16:16:27;;;;;;;0.47;0.38;;;10.50;45.60;;;;;;5062202;28;20021;-73
2021/05/02 16:18:55;;;;;;;6.28;0.50;;;10.30;45.00;;;;;;5054786;28;20009;-70
2021/05/02 16:21:25;;;;;;;1.02;0.40;;;10.20;45.40;;;;;;5050842;28;20071;-68
2021/05/02 16:23:51;;;;;;;1.00;0.40;;;10.20;46.00;;;;;;5050761;28;20104;-69
2021/05/02 16:26:18;;;;;;;0.65;0.40;;;10.10;46.30;;;;;;5050505;28;20220;-69
2021/05/02 16:28:44;;;;;;;1.85;0.50;;;9.90;46.30;;;;;;5050971;28;20443;-70
2021/05/02 16:31:10;;;;;;;4.45;1.30;;;9.80;46.70;;;;;;5050936;28;20115;-75
2021/05/02 16:33:35;;;;;;;1.48;0.70;;;10.30;52.60;;;;;;5049170;28;20025;-70
2021/05/02 16:36:02;;;;;;;0.73;0.50;;;10.20;47.20;;;;;;5050659;28;20522;-70
2021/05/02 16:38:28;;;;;;;2.22;0.80;;;10.10;46.80;;;;;;5051601;28;20468;-69
2021/05/02 16:40:54;;;;;;;2.38;0.70;;;9.90;46.90;;;;;;5037184;28;20031;-70
2021/05/02 16:43:20;;;;;;;1.52;1.23;;;9.80;46.90;;;;;;5051897;28;20606;-71
2021/05/02 16:45:46;;;;;;;4.72;2.95;;;9.70;46.80;;;;;;5051452;28;20021;-71
2021/05/02 16:48:12;;;;;;;1.63;1.02;;;9.60;47.20;;;;;;5050684;28;20033;-71
2021/05/02 16:50:38;;;;;;;1.42;1.00;;;9.50;47.40;;;;;;5050856;28;20473;-70
2021/05/02 16:53:04;;;;;;;1.67;0.85;;;9.50;47.40;;;;;;5050884;28;20041;-70
2021/05/02 16:55:31;;;;;;;1.20;0.60;;;9.50;47.70;;;;;;5047720;28;20031;-69
2021/05/02 16:58:00;;;;;;;0.40;0.40;;;9.50;47.50;;;;;;5050598;28;20104;-70
2021/05/02 17:00:26;;;;;;;0.40;0.40;;;9.60;47.30;;;;;;5051004;28;20017;-70
2021/05/02 17:02:52;;;;;;;2.13;1.10;;;9.50;46.60;;;;;;5044139;28;20119;-70
2021/05/02 17:05:18;;;;;;;2.80;1.40;;;9.50;47.10;;;;;;5051138;28;20049;-69
2021/05/02 17:07:46;;;;;;;2.17;1.10;;;9.40;47.20;;;;;;5036800;28;20049;-70
2021/05/02 17:10:13;;;;;;;4.53;0.90;;;9.40;47.40;;;;;;5047786;28;20033;-70
2021/05/02 17:12:38;;;;;;;2.35;0.70;;;9.40;47.70;;;;;;5046731;28;20061;-70
2021/05/02 17:15:05;;;;;;;0.80;0.70;;;9.40;47.60;;;;;;5047026;28;20116;-70